createdAt,value
2018-06-25T00:01:03.341Z,101574.00
2018-06-25T00:06:07.130Z,101586.00
2018-06-25T00:11:11.150Z,101571.00
2018-06-25T00:16:14.930Z,101565.00
2018-06-25T00:21:18.705Z,101572.00
2018-06-25T00:26:22.667Z,101563.00
2018-06-25T00:31:26.570Z,101566.00
2018-06-25T00:36:30.711Z,101556.00
2018-06-25T00:41:34.485Z,101555.00
2018-06-25T00:46:38.285Z,101562.00
2018-06-25T00:51:42.313Z,101562.00
2018-06-25T00:56:46.330Z,101567.00
2018-06-25T01:01:50.141Z,101572.00
2018-06-25T01:06:53.965Z,101574.00
2018-06-25T01:11:57.739Z,101568.00
2018-06-25T01:17:01.754Z,101577.00
2018-06-25T01:22:06.121Z,101582.00
2018-06-25T01:27:10.673Z,101571.00
2018-06-25T01:32:14.461Z,101573.00
2018-06-25T01:37:18.471Z,101561.00
2018-06-25T01:42:22.491Z,101563.00
2018-06-25T01:47:26.277Z,101567.00
2018-06-25T01:52:30.116Z,101569.00
2018-06-25T01:57:34.133Z,101561.00
2018-06-25T02:02:37.925Z,101569.00
2018-06-25T02:07:41.726Z,101563.00
2018-06-25T02:12:45.512Z,101560.00
2018-06-25T02:17:49.549Z,101562.00
2018-06-25T02:22:53.377Z,101570.00
2018-06-25T02:27:57.172Z,101562.00
2018-06-25T02:33:01.259Z,101571.00
2018-06-25T02:38:05.343Z,101577.00
2018-06-25T02:43:09.122Z,101567.00
2018-06-25T02:48:13.165Z,101571.00
2018-06-25T02:53:17.210Z,101574.00
2018-06-25T02:58:21.009Z,101576.00
2018-06-25T03:03:24.793Z,101573.00
2018-06-25T03:08:28.703Z,101575.00
2018-06-25T03:13:32.821Z,101575.00
2018-06-25T03:18:36.631Z,101574.00
2018-06-25T03:23:40.697Z,101578.00
2018-06-25T03:28:44.770Z,101583.00
2018-06-25T03:33:48.835Z,101586.00
2018-06-25T03:38:52.898Z,101581.00
2018-06-25T03:43:56.720Z,101584.00
2018-06-25T03:49:00.519Z,101592.00
2018-06-25T03:54:04.319Z,101599.00
2018-06-25T03:59:08.481Z,101597.00
2018-06-25T04:04:12.295Z,101596.00
2018-06-25T04:09:16.366Z,101599.00
2018-06-25T04:14:20.393Z,101604.00
2018-06-25T04:19:24.226Z,101605.00
2018-06-25T04:24:28.052Z,101614.00
2018-06-25T04:29:31.870Z,101623.00
2018-06-25T04:34:35.925Z,101624.00
2018-06-25T04:39:39.730Z,101628.00
2018-06-25T04:44:43.553Z,101634.00
2018-06-25T04:49:47.363Z,101633.00
2018-06-25T04:54:51.196Z,101639.00
2018-06-25T04:59:55.229Z,101639.00
2018-06-25T05:04:59.031Z,101643.00
2018-06-25T05:10:03.149Z,101642.00
2018-06-25T05:15:06.948Z,101651.00
2018-06-25T05:20:11.027Z,101650.00
2018-06-25T05:25:14.830Z,101653.00
2018-06-25T05:30:18.608Z,101661.00
2018-06-25T05:35:22.421Z,101657.00
2018-06-25T05:40:26.438Z,101663.00
2018-06-25T05:45:30.213Z,101671.00
2018-06-25T05:50:34.235Z,101665.00
2018-06-25T05:55:38.046Z,101671.00
2018-06-25T06:00:41.857Z,101675.00
2018-06-25T06:05:45.632Z,101670.00
2018-06-25T06:10:49.425Z,101679.00
2018-06-25T06:15:53.435Z,101685.00
2018-06-25T06:20:57.276Z,101690.00
2018-06-25T06:26:01.585Z,101689.00
2018-06-25T06:31:05.378Z,101690.00
2018-06-25T06:36:08.797Z,101691.00
2018-06-25T06:41:12.564Z,101699.00
2018-06-25T06:46:16.669Z,101706.00
2018-06-25T06:51:20.531Z,101709.00
2018-06-25T06:56:24.538Z,101710.00
2018-06-25T07:01:28.350Z,101715.00
2018-06-25T07:06:32.196Z,101714.00
2018-06-25T07:11:36.113Z,101713.00
2018-06-25T07:16:40.921Z,101722.00
2018-06-25T07:21:44.979Z,101729.00
2018-06-25T07:26:48.809Z,101724.00
2018-06-25T07:31:53.055Z,101728.00
2018-06-25T07:36:56.862Z,101734.00
2018-06-25T07:42:00.687Z,101734.00
2018-06-25T07:47:04.829Z,101733.00
2018-06-25T07:52:08.577Z,101734.00
2018-06-25T07:57:12.422Z,101734.00
2018-06-25T08:02:16.277Z,101729.00
2018-06-25T08:07:21.124Z,101734.00
2018-06-25T08:12:24.906Z,101733.00
2018-06-25T08:17:28.901Z,101735.00
2018-06-25T08:22:32.686Z,101744.00
2018-06-25T08:27:37.708Z,101751.00
2018-06-25T08:32:41.477Z,101750.00
2018-06-25T08:37:45.249Z,101756.00
2018-06-25T08:42:49.253Z,101752.00
2018-06-25T08:47:53.029Z,101754.00
2018-06-25T08:52:56.804Z,101764.00
2018-06-25T08:58:00.632Z,101764.00
2018-06-25T09:03:04.436Z,101767.00
2018-06-25T09:08:08.164Z,101761.00
2018-06-25T09:13:11.936Z,101766.00
2018-06-25T09:18:15.957Z,101767.00
2018-06-25T09:23:19.980Z,101777.00
2018-06-25T09:28:23.969Z,101775.00
2018-06-25T09:33:28.041Z,101779.00
2018-06-25T09:38:32.054Z,101775.00
2018-06-25T09:43:36.071Z,101780.00
2018-06-25T09:48:40.079Z,101783.00
2018-06-25T09:53:44.521Z,101779.00
2018-06-25T09:58:48.438Z,101779.00
2018-06-25T10:03:52.229Z,101783.00
2018-06-25T10:08:56.297Z,101778.00
2018-06-25T10:14:00.168Z,101783.00
2018-06-25T10:19:04.433Z,101789.00
2018-06-25T10:24:08.641Z,101786.00
2018-06-25T10:29:12.449Z,101788.00
2018-06-25T10:34:16.273Z,101790.00
2018-06-25T10:39:20.084Z,101791.00
2018-06-25T10:44:23.870Z,101798.00
2018-06-25T10:49:27.900Z,101792.00
2018-06-25T10:54:32.045Z,101791.00
2018-06-25T10:59:36.207Z,101789.00
2018-06-25T11:04:40.173Z,101785.00
2018-06-25T11:09:43.974Z,101782.00
2018-06-25T11:14:47.913Z,101771.00
2018-06-25T11:19:51.709Z,101769.00
2018-06-25T11:24:55.684Z,101770.00
2018-06-25T11:29:59.485Z,101777.00
2018-06-25T11:35:03.545Z,101772.00
2018-06-25T11:40:07.601Z,101774.00
2018-06-25T11:45:11.645Z,101777.00
2018-06-25T11:50:15.699Z,101777.00
2018-06-25T11:55:19.499Z,101785.00
2018-06-25T12:00:23.270Z,101785.00
2018-06-25T12:05:27.037Z,101788.00
2018-06-25T12:10:31.107Z,101799.00
2018-06-25T12:15:36.074Z,101793.00
2018-06-25T12:20:39.884Z,101791.00
2018-06-25T12:25:43.668Z,101804.00
2018-06-25T12:30:47.439Z,101802.00
2018-06-25T12:35:51.671Z,101800.00
2018-06-25T12:40:55.724Z,101794.00
2018-06-25T12:45:59.713Z,101790.00
2018-06-25T12:51:03.498Z,101788.00
2018-06-25T12:56:07.314Z,101790.00
2018-06-25T13:01:11.113Z,101787.00
2018-06-25T13:06:15.016Z,101787.00
2018-06-25T13:11:18.820Z,101786.00
2018-06-25T13:16:22.877Z,101788.00
2018-06-25T13:21:27.501Z,101794.00
2018-06-25T13:26:31.357Z,101799.00
2018-06-25T13:31:35.198Z,101790.00
2018-06-25T13:36:38.984Z,101794.00
2018-06-25T13:41:43.091Z,101787.00
2018-06-25T13:46:47.138Z,101791.00
2018-06-25T13:51:50.958Z,101789.00
2018-06-25T13:56:54.786Z,101788.00
2018-06-25T14:01:58.619Z,101785.00
2018-06-25T14:07:02.671Z,101782.00
2018-06-25T14:12:06.473Z,101789.00
2018-06-25T14:17:10.558Z,101783.00
2018-06-25T14:22:14.365Z,101784.00
2018-06-25T14:27:18.407Z,101782.00
2018-06-25T14:32:27.501Z,101775.00
2018-06-25T14:37:31.575Z,101762.00
2018-06-25T14:42:35.633Z,101756.00
2018-06-25T14:47:39.444Z,101752.00
2018-06-25T14:52:43.337Z,101751.00
2018-06-25T14:57:47.389Z,101746.00
2018-06-25T15:02:52.396Z,101744.00
2018-06-25T15:07:56.221Z,101744.00
2018-06-25T15:13:01.075Z,101746.00
2018-06-25T15:18:05.577Z,101739.00
2018-06-25T15:23:09.382Z,101730.00
2018-06-25T15:28:13.197Z,101719.00
2018-06-25T15:33:16.992Z,101723.00
2018-06-25T15:38:20.821Z,101720.00
2018-06-25T15:43:24.866Z,101717.00
2018-06-25T15:48:28.905Z,101717.00
2018-06-25T15:53:32.981Z,101713.00
2018-06-25T15:58:37.027Z,101713.00
2018-06-25T16:03:40.833Z,101701.00
2018-06-25T16:08:44.636Z,101709.00
2018-06-25T16:13:48.505Z,101705.00
2018-06-25T16:18:52.513Z,101703.00
2018-06-25T16:23:56.305Z,101704.00
2018-06-25T16:29:00.223Z,101697.00
2018-06-25T16:34:04.324Z,101688.00
2018-06-25T16:39:10.227Z,101685.00
2018-06-25T16:44:14.110Z,101687.00
2018-06-25T16:49:17.930Z,101688.00
2018-06-25T16:54:21.732Z,101695.00
2018-06-25T16:59:25.561Z,101696.00
2018-06-25T17:04:29.342Z,101694.00
2018-06-25T17:09:33.384Z,101692.00
2018-06-25T17:14:37.197Z,101684.00
2018-06-25T17:19:41.005Z,101677.00
2018-06-25T17:24:44.814Z,101683.00
2018-06-25T17:29:48.841Z,101679.00
2018-06-25T17:34:52.645Z,101678.00
2018-06-25T17:39:56.440Z,101678.00
2018-06-25T17:45:00.342Z,101678.00
2018-06-25T17:50:04.206Z,101684.00
2018-06-25T17:55:08.064Z,101687.00
2018-06-25T18:00:11.837Z,101690.00
2018-06-25T18:05:15.608Z,101690.00
2018-06-25T18:10:19.537Z,101683.00
2018-06-25T18:15:23.534Z,101687.00
2018-06-25T18:20:27.317Z,101690.00
2018-06-25T18:25:31.117Z,101689.00
2018-06-25T18:30:35.866Z,101686.00
2018-06-25T18:35:39.889Z,101687.00
2018-06-25T18:40:43.902Z,101691.00
2018-06-25T18:45:48.798Z,101692.00
2018-06-25T18:50:52.923Z,101682.00
2018-06-25T18:55:56.771Z,101677.00
2018-06-25T19:01:00.602Z,101677.00
2018-06-25T19:06:04.530Z,101681.00
2018-06-25T19:11:08.585Z,101688.00
2018-06-25T19:16:12.700Z,101687.00
2018-06-25T19:21:16.534Z,101693.00
2018-06-25T19:26:20.431Z,101689.00
2018-06-25T19:31:26.526Z,101692.00
2018-06-25T19:36:30.343Z,101700.00
2018-06-25T19:41:34.413Z,101712.00
2018-06-25T19:46:38.482Z,101712.00
2018-06-25T19:51:42.619Z,101718.00
2018-06-25T19:56:46.664Z,101721.00
2018-06-25T20:01:50.666Z,101720.00
2018-06-25T20:06:54.682Z,101724.00
2018-06-25T20:11:58.573Z,101724.00
2018-06-25T20:17:02.640Z,101728.00
2018-06-25T20:22:06.508Z,101733.00
2018-06-25T20:27:10.196Z,101731.00
2018-06-25T20:32:14.223Z,101734.00
2018-06-25T20:37:18.041Z,101733.00
2018-06-25T20:42:21.823Z,101739.00
2018-06-25T20:47:25.855Z,101747.00
2018-06-25T20:52:29.903Z,101749.00
2018-06-25T20:57:34.116Z,101750.00
2018-06-25T21:02:38.121Z,101750.00
2018-06-25T21:07:41.906Z,101748.00
2018-06-25T21:12:45.904Z,101748.00
2018-06-25T21:17:49.700Z,101748.00
2018-06-25T21:22:53.487Z,101750.00
2018-06-25T21:27:57.298Z,101699.00
2018-06-25T21:33:01.076Z,101738.00
2018-06-25T21:38:05.162Z,101737.00
2018-06-25T21:43:08.933Z,101704.00
2018-06-25T21:48:12.708Z,101735.00
2018-06-25T21:53:16.730Z,101728.00
2018-06-25T21:58:20.599Z,101726.00
2018-06-25T22:03:24.635Z,101725.00
2018-06-25T22:08:28.452Z,101735.00
2018-06-25T22:13:32.267Z,101739.00
2018-06-25T22:18:36.072Z,101751.00
2018-06-25T22:23:40.129Z,101744.00
2018-06-25T22:28:43.925Z,101737.00
2018-06-25T22:33:47.985Z,101739.00
2018-06-25T22:38:52.164Z,101741.00
2018-06-25T22:44:10.859Z,101743.00
2018-06-25T22:49:14.653Z,101752.00
2018-06-25T22:54:18.460Z,101749.00
2018-06-25T22:59:23.049Z,101739.00
2018-06-25T23:04:27.100Z,101742.00
2018-06-25T23:09:31.166Z,101751.00
2018-06-25T23:14:35.026Z,101752.00
2018-06-25T23:19:38.877Z,101760.00
2018-06-25T23:24:42.685Z,101761.00
2018-06-25T23:29:46.729Z,101755.00
2018-06-25T23:34:50.537Z,101755.00
2018-06-25T23:39:54.340Z,101756.00
2018-06-25T23:44:58.157Z,101758.00
2018-06-25T23:50:02.274Z,101758.00
2018-06-25T23:55:06.060Z,101752.00
